Time;durP1;ratioP1;P1;durP2;ratioP2;P2;SDS_P1;SDS_P2;PMS_P1;PMS_P2;Temp;Humidity;BMP_temperature;BMP_pressure;BME280_temperature;BME280_humidity;BME280_pressure;Samples;Min_cycle;Max_cycle;Signal;HPM_P1;HPM_P2
2023/08/29 00:01:00;;;;;;;1.88;1.67;;;;;;;25.03;84.37;99563.28;4986687;28;20076;-74
2023/08/29 00:03:27;;;;;;;3.30;1.85;;;;;;;25.49;85.00;99656.56;4986904;28;20498;-75
2023/08/29 00:06:04;;;;;;;2.63;1.60;;;;;;;25.39;85.71;99633.19;4986518;28;20042;-75
2023/08/29 00:08:32;;;;;;;0.45;0.45;;;;;;;25.60;84.97;99673.72;4986327;28;20564;-74
2023/08/29 00:10:59;;;;;;;10.18;1.20;;;;;;;25.23;85.00;99620.88;4983425;28;20037;-74
2023/08/29 00:13:25;;;;;;;0.68;0.55;;;;;;;24.97;85.64;99587.88;4982711;28;20465;-75
2023/08/29 00:15:51;;;;;;;0.32;0.32;;;;;;;24.85;85.74;99589.63;4987307;28;20050;-75
2023/08/29 00:18:16;;;;;;;1.02;0.70;;;;;;;24.80;85.72;99573.00;4987126;28;20153;-75
2023/08/29 00:20:42;;;;;;;0.43;0.43;;;;;;;24.84;87.32;99578.97;4986610;28;20038;-74
2023/08/29 00:23:09;;;;;;;0.45;0.40;;;;;;;25.49;86.32;99683.41;4982812;28;20031;-73
2023/08/29 00:25:35;;;;;;;0.45;0.43;;;;;;;25.35;86.64;99678.22;4982244;28;20034;-74
2023/08/29 00:28:01;;;;;;;1.10;0.88;;;;;;;24.71;87.79;99572.81;4982367;28;20196;-75
2023/08/29 00:30:26;;;;;;;0.65;0.63;;;;;;;25.37;87.89;99680.78;4986858;28;20141;-75
2023/08/29 00:32:51;;;;;;;0.95;0.88;;;;;;;25.22;88.47;99661.31;4986108;28;20137;-75
2023/08/29 00:35:17;;;;;;;0.85;0.77;;;;;;;24.68;88.66;99562.28;4986978;28;20113;-75
2023/08/29 00:37:43;;;;;;;2.80;2.60;;;;;;;25.28;89.17;99674.25;4986597;28;20510;-76
2023/08/29 00:40:10;;;;;;;1.15;0.60;;;;;;;24.99;89.28;99622.66;4986169;28;20552;-75
2023/08/29 00:42:35;;;;;;;0.25;0.25;;;;;;;25.30;89.62;99664.25;4986615;28;20078;-75
2023/08/29 00:45:01;;;;;;;1.73;1.05;;;;;;;25.24;91.82;99668.28;4986553;28;20125;-75
2023/08/29 00:47:28;;;;;;;0.70;0.70;;;;;;;25.32;92.53;99691.88;4986599;28;20463;-76
2023/08/29 00:49:54;;;;;;;1.35;1.10;;;;;;;24.70;94.98;99608.66;4986796;28;20379;-76
2023/08/29 00:52:20;;;;;;;1.05;1.00;;;;;;;24.92;97.37;99680.44;4984573;28;20042;-76
2023/08/29 00:54:46;;;;;;;1.10;0.85;;;;;;;24.23;98.98;99587.75;4995106;28;20478;-75
2023/08/29 00:57:11;;;;;;;6.30;0.93;;;;;;;24.21;98.62;99587.00;4989054;28;20069;-75
2023/08/29 00:59:37;;;;;;;0.90;0.82;;;;;;;24.23;99.93;99589.56;4990047;28;20410;-75
2023/08/29 01:02:03;;;;;;;0.93;0.57;;;;;;;24.75;99.45;99676.28;4989403;28;20034;-75
2023/08/29 01:04:29;;;;;;;0.77;0.63;;;;;;;24.56;100.00;99703.50;4981240;28;20487;-74
2023/08/29 01:06:55;;;;;;;0.73;0.68;;;;;;;23.96;100.00;99593.19;4988858;28;20046;-76
2023/08/29 01:09:21;;;;;;;1.00;0.93;;;;;;;24.09;100.00;99678.13;4983042;28;20054;-75
2023/08/29 01:11:58;;;;;;;2.05;1.40;;;;;;;23.37;100.00;99584.69;4987360;28;20503;-76
2023/08/29 01:14:29;;;;;;;2.72;1.70;;;;;;;23.98;100.00;99686.91;4987960;28;20030;-75
2023/08/29 01:17:05;;;;;;;2.20;2.00;;;;;;;23.97;100.00;99680.66;4988900;28;20030;-75
2023/08/29 01:19:33;;;;;;;1.45;1.05;;;;;;;23.95;100.00;99679.94;4990091;28;20054;-75
2023/08/29 01:22:16;;;;;;;1.05;0.77;;;;;;;23.27;100.00;99564.81;4993251;28;20398;-75
2023/08/29 01:24:54;;;;;;;;;;;;;;;23.85;100.00;99686.84;4988244;28;20134;-75
2023/08/29 01:27:20;;;;;;;2.63;2.13;;;;;;;23.80;100.00;99670.22;4981047;28;19949;-74
2023/08/29 01:29:46;;;;;;;2.13;1.00;;;;;;;23.82;100.00;99684.38;4986150;28;20085;-74
2023/08/29 01:32:15;;;;;;;3.13;1.95;;;;;;;23.83;100.00;99686.09;4983779;28;20041;-75
2023/08/29 01:34:43;;;;;;;1.45;1.13;;;;;;;23.70;100.00;99687.84;4986215;28;20080;-76
2023/08/29 01:37:09;;;;;;;1.13;1.02;;;;;;;23.72;100.00;99668.03;4987342;28;20046;-74
2023/08/29 01:39:34;;;;;;;4.28;2.15;;;;;;;23.59;100.00;99656.41;4987867;28;20457;-76
2023/08/29 01:42:00;;;;;;;1.35;0.93;;;;;;;23.64;100.00;99683.75;4990090;28;20076;-76
2023/08/29 01:44:25;;;;;;;1.58;1.02;;;;;;;22.88;100.00;99580.69;4986622;28;20035;-75
2023/08/29 01:46:51;;;;;;;1.10;1.00;;;;;;;23.29;100.00;99669.97;4985161;28;20039;-74
2023/08/29 01:49:17;;;;;;;3.88;1.90;;;;;;;23.08;100.00;99600.81;4984033;28;20042;-74
2023/08/29 01:51:44;;;;;;;1.85;1.65;;;;;;;23.46;100.00;99663.53;4989152;28;20137;-76
2023/08/29 01:54:09;;;;;;;1.30;1.10;;;;;;;23.17;100.00;99608.25;4988904;28;20056;-75
2023/08/29 01:56:37;;;;;;;1.48;1.38;;;;;;;22.90;100.00;99628.75;4988463;28;20058;-75
2023/08/29 01:59:06;;;;;;;1.70;1.00;;;;;;;23.05;100.00;99686.66;4988833;28;20100;-74
2023/08/29 02:01:32;;;;;;;1.08;0.98;;;;;;;22.80;100.00;99616.88;4989373;28;20070;-74
2023/08/29 02:03:57;;;;;;;1.10;1.00;;;;;;;22.62;100.00;99595.72;4986396;28;20053;-75
2023/08/29 02:06:23;;;;;;;0.30;0.30;;;;;;;23.00;100.00;99690.59;4989239;28;20118;-75
2023/08/29 02:08:48;;;;;;;2.78;1.33;;;;;;;23.18;100.00;99687.59;4988200;28;20065;-75
2023/08/29 02:11:14;;;;;;;1.02;0.82;;;;;;;22.74;100.00;99663.63;4988512;28;20155;-75
2023/08/29 02:13:39;;;;;;;2.85;2.20;;;;;;;21.99;100.00;99588.03;4989224;28;20030;-75
2023/08/29 02:16:05;;;;;;;1.48;1.38;;;;;;;22.57;100.00;99695.88;4987340;28;20053;-73
2023/08/29 02:18:30;;;;;;;1.33;1.08;;;;;;;22.22;100.00;99670.34;4982709;28;20737;-75
2023/08/29 02:20:56;;;;;;;1.45;1.35;;;;;;;21.50;100.00;99581.97;4984391;28;20053;-75
2023/08/29 02:23:21;;;;;;;4.35;1.48;;;;;;;21.60;100.00;99602.78;4987999;28;20050;-75
2023/08/29 02:25:47;;;;;;;1.92;1.02;;;;;;;22.25;100.00;99688.88;4985636;28;20037;-75
2023/08/29 02:28:13;;;;;;;1.13;0.95;;;;;;;21.85;100.00;99667.16;4987974;28;20089;-75
2023/08/29 02:30:39;;;;;;;0.85;0.65;;;;;;;21.85;100.00;99669.84;4988406;28;20050;-75
2023/08/29 02:33:05;;;;;;;3.88;1.77;;;;;;;21.83;100.00;99686.91;4987209;28;20065;-75
2023/08/29 02:35:30;;;;;;;1.70;1.60;;;;;;;21.52;100.00;99603.25;4987815;28;20320;-74
2023/08/29 02:37:55;;;;;;;0.80;0.73;;;;;;;21.23;100.00;99586.19;4987402;28;20038;-76
2023/08/29 02:40:22;;;;;;;1.67;0.98;;;;;;;20.16;100.00;99358.53;4985882;28;20042;-76
2023/08/29 02:42:47;;;;;;;1.27;1.17;;;;;;;22.13;100.00;99693.09;4986525;28;20096;-76
2023/08/29 02:45:13;;;;;;;0.95;0.95;;;;;;;21.80;100.00;99687.09;4979451;28;20046;-75
2023/08/29 02:47:38;;;;;;;1.02;0.70;;;;;;;21.78;100.00;99697.84;4982763;28;20526;-74
2023/08/29 02:50:04;;;;;;;2.03;1.83;;;;;;;21.45;100.00;99625.91;4988616;28;20120;-76
2023/08/29 02:52:30;;;;;;;2.78;1.58;;;;;;;21.44;100.00;99602.81;5019274;28;20058;-75
2023/08/29 02:54:55;;;;;;;1.50;1.08;;;;;;;22.08;100.00;99687.19;4981532;28;20054;-76
2023/08/29 02:57:21;;;;;;;0.93;0.93;;;;;;;22.18;100.00;99689.31;4984160;28;20046;-75
2023/08/29 02:59:46;;;;;;;1.02;0.98;;;;;;;22.23;100.00;99689.91;4979950;28;20105;-75
2023/08/29 03:02:12;;;;;;;4.05;2.55;;;;;;;21.41;100.00;99574.50;4986877;28;20402;-75
2023/08/29 03:04:38;;;;;;;0.80;0.75;;;;;;;21.86;100.00;99668.00;4988701;28;20036;-75
2023/08/29 03:07:04;;;;;;;1.35;1.13;;;;;;;21.95;100.00;99658.59;4988207;28;20051;-75
2023/08/29 03:09:30;;;;;;;1.13;0.90;;;;;;;21.38;100.00;99596.00;4987660;28;20049;-75
2023/08/29 03:11:55;;;;;;;1.80;1.40;;;;;;;21.08;100.00;99562.13;4983018;28;20329;-75
2023/08/29 03:14:21;;;;;;;1.90;1.55;;;;;;;21.27;100.00;99599.28;4985154;28;20038;-74
2023/08/29 03:16:46;;;;;;;0.50;0.50;;;;;;;21.73;100.00;99672.34;4988829;28;20088;-75
2023/08/29 03:19:12;;;;;;;1.48;1.38;;;;;;;21.15;100.00;99551.09;4986997;28;20104;-75
2023/08/29 03:21:37;;;;;;;1.50;1.40;;;;;;;20.97;100.00;99555.66;4987051;28;20165;-75
2023/08/29 03:24:05;;;;;;;1.17;0.98;;;;;;;21.58;100.00;99650.91;4984428;28;20046;-75
2023/08/29 03:26:31;;;;;;;0.80;0.80;;;;;;;21.23;100.00;99554.16;4984669;28;20410;-74
2023/08/29 03:28:56;;;;;;;8.40;1.67;;;;;;;20.95;100.00;99542.41;4987391;28;20026;-75
2023/08/29 03:31:22;;;;;;;1.23;1.10;;;;;;;21.27;100.00;99580.59;4985105;28;20058;-73
2023/08/29 03:33:48;;;;;;;4.32;1.67;;;;;;;21.21;100.00;99559.63;4981545;28;20070;-76
2023/08/29 03:36:14;;;;;;;0.85;0.85;;;;;;;21.80;100.00;99666.56;4987347;28;20117;-74
2023/08/29 03:38:42;;;;;;;1.80;1.63;;;;;;;21.00;100.00;99542.16;4987021;28;20055;-75
2023/08/29 03:41:07;;;;;;;0.95;0.65;;;;;;;21.41;100.00;99611.00;4985451;28;20044;-74
2023/08/29 03:43:34;;;;;;;0.90;0.88;;;;;;;21.61;100.00;99656.09;4984577;28;20068;-75
2023/08/29 03:46:02;;;;;;;4.80;2.28;;;;;;;21.12;100.00;99557.47;4987121;28;20050;-76
2023/08/29 03:48:28;;;;;;;0.98;0.80;;;;;;;21.71;100.00;99653.75;4985781;28;20046;-74
2023/08/29 03:50:54;;;;;;;9.73;2.58;;;;;;;21.17;100.00;99551.88;4986956;28;20065;-75
2023/08/29 03:53:19;;;;;;;1.90;1.77;;;;;;;21.97;100.00;99646.03;4985947;28;20483;-75
2023/08/29 03:55:45;;;;;;;0.85;0.82;;;;;;;21.13;100.00;99540.50;4985114;28;20112;-74
2023/08/29 03:58:10;;;;;;;4.35;1.95;;;;;;;21.71;100.00;99608.34;5013653;28;20078;-74
2023/08/29 04:00:36;;;;;;;4.75;1.90;;;;;;;21.83;100.00;99647.69;4986546;28;20038;-75
2023/08/29 04:03:05;;;;;;;1.60;1.50;;;;;;;21.91;100.00;99650.78;4986698;28;20193;-75
2023/08/29 04:05:30;;;;;;;0.45;0.45;;;;;;;21.85;100.00;99631.59;4986583;28;20093;-75
2023/08/29 04:07:55;;;;;;;1.05;0.88;;;;;;;21.81;100.00;99622.88;4982656;28;20510;-73
2023/08/29 04:10:21;;;;;;;2.08;1.92;;;;;;;22.08;100.00;99664.94;4984673;28;20081;-76
2023/08/29 04:12:46;;;;;;;1.13;1.00;;;;;;;21.48;100.00;99557.16;4986906;28;20046;-74
2023/08/29 04:15:12;;;;;;;2.17;1.98;;;;;;;22.05;100.00;99639.25;4986520;28;20065;-74
2023/08/29 04:17:41;;;;;;;1.38;1.27;;;;;;;21.69;100.00;99560.38;4986745;28;20042;-75
2023/08/29 04:20:12;;;;;;;0.85;0.47;;;;;;;22.08;100.00;99641.75;4987767;28;20037;-75
2023/08/29 04:22:38;;;;;;;3.30;2.40;;;;;;;22.12;100.00;99643.31;4977946;28;20524;-76
2023/08/29 04:25:07;;;;;;;1.48;0.85;;;;;;;22.20;100.00;99658.84;4980449;28;20042;-75
2023/08/29 04:27:34;;;;;;;1.27;0.70;;;;;;;21.83;100.00;99564.03;4984224;28;20050;-74
2023/08/29 04:29:59;;;;;;;1.30;0.98;;;;;;;22.10;100.00;99607.78;5001138;28;20045;-75
2023/08/29 04:32:25;;;;;;;1.05;0.95;;;;;;;21.75;100.00;99539.59;4980554;28;20402;-76
2023/08/29 04:34:50;;;;;;;1.38;1.27;;;;;;;22.62;100.00;99653.69;4986639;28;20077;-75
2023/08/29 04:37:16;;;;;;;2.03;1.58;;;;;;;22.56;100.00;99630.84;4982989;28;20100;-75
2023/08/29 04:39:42;;;;;;;0.88;0.82;;;;;;;22.86;100.00;99662.84;4983068;28;20441;-75
2023/08/29 04:42:08;;;;;;;2.92;1.45;;;;;;;22.41;100.00;99565.84;4982704;28;20125;-74
2023/08/29 04:44:34;;;;;;;0.80;0.80;;;;;;;22.80;100.00;99654.34;4986223;28;20042;-76
2023/08/29 04:47:00;;;;;;;1.48;1.10;;;;;;;22.40;100.00;99552.56;4985329;28;20057;-78
2023/08/29 04:49:25;;;;;;;1.45;0.80;;;;;;;22.89;100.00;99633.22;4983667;28;20042;-75
2023/08/29 04:51:50;;;;;;;4.40;3.45;;;;;;;23.08;100.00;99650.81;4982835;28;20499;-74
2023/08/29 04:54:16;;;;;;;2.58;1.77;;;;;;;23.07;100.00;99651.78;4985964;28;20046;-74
2023/08/29 04:56:42;;;;;;;0.95;0.88;;;;;;;22.84;100.00;99581.81;4985852;28;20042;-75
2023/08/29 04:59:07;;;;;;;1.00;0.93;;;;;;;22.66;100.00;99533.03;4982778;28;20026;-76
2023/08/29 05:01:33;;;;;;;1.20;1.02;;;;;;;22.84;100.00;99555.06;4987045;28;20126;-75
2023/08/29 05:03:59;;;;;;;3.22;1.90;;;;;;;23.66;100.00;99657.72;4985171;28;20038;-75
2023/08/29 05:06:25;;;;;;;1.98;0.77;;;;;;;23.64;100.00;99659.63;4981111;28;20074;-74
2023/08/29 05:08:51;;;;;;;1.38;1.27;;;;;;;23.62;100.00;99658.88;4985173;28;20046;-74
2023/08/29 05:11:16;;;;;;;1.67;1.55;;;;;;;23.26;100.00;99581.84;4985817;28;20488;-74
2023/08/29 05:13:42;;;;;;;2.17;0.93;;;;;;;23.52;100.00;99583.63;5017554;28;20039;-75
2023/08/29 05:16:07;;;;;;;1.45;1.10;;;;;;;23.39;100.00;99561.34;4985778;28;20073;-75
2023/08/29 05:18:32;;;;;;;1.10;1.00;;;;;;;24.18;100.00;99667.63;4984668;28;20135;-73
2023/08/29 05:20:58;;;;;;;0.73;0.73;;;;;;;24.40;100.00;99607.16;4979546;28;20100;-76
2023/08/29 05:23:23;;;;;;;3.33;1.17;;;;;;;24.69;100.00;99562.19;4985745;28;20395;-75
2023/08/29 05:25:49;;;;;;;2.03;1.85;;;;;;;25.76;96.87;99655.47;4984695;28;20026;-74
2023/08/29 05:28:14;;;;;;;2.15;1.95;;;;;;;26.48;87.80;99658.03;4981180;28;20133;-75
2023/08/29 05:30:40;;;;;;;0.38;0.38;;;;;;;27.47;81.04;99656.44;4985526;28;20046;-74
2023/08/29 05:33:05;;;;;;;1.88;1.35;;;;;;;27.15;76.37;99559.38;4977774;28;20085;-76
2023/08/29 05:35:31;;;;;;;1.05;0.95;;;;;;;27.93;73.77;99655.31;4978885;28;21226;-75
2023/08/29 05:37:56;;;;;;;0.60;0.60;;;;;;;27.27;69.09;99577.25;4987434;28;20636;-74
2023/08/29 05:40:22;;;;;;;1.55;1.45;;;;;;;28.18;67.30;99654.06;4986656;28;20041;-75
2023/08/29 05:42:47;;;;;;;0.60;0.60;;;;;;;29.51;61.66;99656.81;4978188;28;20085;-78
2023/08/29 05:45:14;;;;;;;3.00;2.38;;;;;;;28.75;60.78;99607.81;4980597;28;20058;-75
2023/08/29 05:47:39;;;;;;;2.22;2.03;;;;;;;29.71;58.41;99655.00;4987155;28;20131;-74
2023/08/29 05:50:06;;;;;;;1.65;1.50;;;;;;;29.87;56.45;99589.53;4984508;28;20039;-74
2023/08/29 05:52:31;;;;;;;2.10;2.00;;;;;;;29.61;56.29;99571.16;4981622;28;20053;-74
2023/08/29 05:54:57;;;;;;;0.98;0.88;;;;;;;30.49;54.89;99606.22;4982072;28;20457;-75
2023/08/29 05:57:23;;;;;;;1.05;0.95;;;;;;;30.99;54.31;99640.25;4984025;28;20407;-75
2023/08/29 05:59:48;;;;;;;2.65;2.00;;;;;;;31.25;53.04;99634.97;4982320;28;20153;-74
2023/08/29 06:02:14;;;;;;;2.97;2.08;;;;;;;31.15;52.18;99569.16;4985166;28;20340;-75
2023/08/29 06:04:39;;;;;;;1.63;1.40;;;;;;;30.76;51.25;99551.22;4983686;28;20064;-74
2023/08/29 06:07:05;;;;;;;2.58;2.20;;;;;;;31.56;50.61;99608.38;4987290;28;20105;-75
2023/08/29 06:09:34;;;;;;;1.80;1.13;;;;;;;31.21;50.48;99545.00;4987484;28;20789;-73
2023/08/29 06:12:00;;;;;;;2.83;2.63;;;;;;;31.59;50.59;99594.53;4987607;28;20081;-74
2023/08/29 06:14:26;;;;;;;0.90;0.90;;;;;;;31.78;50.67;99617.91;4986467;28;20026;-72
2023/08/29 06:16:51;;;;;;;0.60;0.60;;;;;;;31.77;53.84;99643.31;4983368;28;20111;-72
2023/08/29 06:19:17;;;;;;;2.28;0.93;;;;;;;31.23;52.87;99556.50;4978333;28;20418;-72
2023/08/29 06:21:42;;;;;;;2.25;2.00;;;;;;;30.88;55.75;99532.94;4988025;28;20085;-73
2023/08/29 06:24:08;;;;;;;1.08;0.98;;;;;;;31.59;54.34;99631.66;4986411;28;20058;-72
2023/08/29 06:26:33;;;;;;;0.50;0.50;;;;;;;30.64;55.56;99565.97;4985160;28;20057;-73
2023/08/29 06:28:59;;;;;;;3.25;2.38;;;;;;;30.94;55.33;99629.03;4978352;28;20036;-73
2023/08/29 06:31:24;;;;;;;3.33;3.05;;;;;;;30.61;54.58;99621.28;4983402;28;20626;-72
2023/08/29 06:33:50;;;;;;;1.20;1.10;;;;;;;30.26;55.49;99555.16;4988421;28;20042;-72
2023/08/29 06:36:15;;;;;;;1.05;1.00;;;;;;;29.74;54.12;99554.66;4988089;28;20042;-72
2023/08/29 06:38:42;;;;;;;0.20;0.20;;;;;;;29.56;57.32;99600.47;4987120;28;20049;-72
2023/08/29 06:41:08;;;;;;;1.17;1.08;;;;;;;29.94;55.14;99620.41;4988429;28;20647;-72
2023/08/29 06:43:34;;;;;;;2.30;1.42;;;;;;;29.82;55.44;99581.84;4987626;28;20027;-72
2023/08/29 06:45:59;;;;;;;2.15;1.95;;;;;;;29.61;56.57;99635.19;4980575;28;20505;-72
2023/08/29 06:48:25;;;;;;;0.45;0.45;;;;;;;29.90;56.66;99643.34;4979831;28;20049;-71
2023/08/29 06:50:50;;;;;;;2.80;1.40;;;;;;;29.37;58.76;99619.38;4987734;28;20038;-71
2023/08/29 06:53:15;;;;;;;1.65;1.38;;;;;;;29.70;57.77;99615.44;4987539;28;20537;-72
2023/08/29 06:55:41;;;;;;;1.63;1.35;;;;;;;29.85;56.79;99651.91;4983888;28;20423;-73
2023/08/29 06:58:07;;;;;;;1.20;1.10;;;;;;;29.72;57.11;99632.38;4981371;28;20047;-72
2023/08/29 07:00:33;;;;;;;1.52;1.38;;;;;;;29.50;56.32;99638.91;4982196;28;20467;-72
2023/08/29 07:02:59;;;;;;;3.20;2.28;;;;;;;29.48;57.28;99600.34;4986449;28;20659;-73
2023/08/29 07:05:26;;;;;;;1.52;1.25;;;;;;;29.71;56.80;99638.78;4986636;28;20077;-77
2023/08/29 07:07:51;;;;;;;1.58;1.48;;;;;;;29.91;56.87;99641.50;4981462;28;20442;-77
2023/08/29 07:10:17;;;;;;;2.88;1.52;;;;;;;28.95;57.17;99579.03;4984499;28;20046;-77
2023/08/29 07:12:42;;;;;;;2.45;1.50;;;;;;;29.79;57.41;99630.81;4979532;28;20047;-77
2023/08/29 07:15:08;;;;;;;2.53;1.60;;;;;;;29.81;56.00;99615.31;4985967;28;20050;-78
2023/08/29 07:17:34;;;;;;;3.20;1.45;;;;;;;29.75;56.07;99623.97;4986966;28;20561;-76
2023/08/29 07:19:59;;;;;;;1.50;0.98;;;;;;;29.50;55.70;99609.16;4987435;28;20105;-77
2023/08/29 07:22:25;;;;;;;0.73;0.68;;;;;;;29.61;56.44;99597.34;4987123;28;20080;-77
2023/08/29 07:24:51;;;;;;;1.65;1.45;;;;;;;29.58;56.11;99551.66;4984124;28;20049;-76
2023/08/29 07:27:17;;;;;;;1.13;1.00;;;;;;;29.58;55.92;99549.81;4986685;28;20049;-78
2023/08/29 07:29:43;;;;;;;1.15;1.05;;;;;;;30.07;55.97;99629.09;4979264;28;20054;-77
2023/08/29 07:32:08;;;;;;;0.70;0.47;;;;;;;29.44;56.07;99542.97;4986675;28;20026;-77
2023/08/29 07:34:34;;;;;;;1.65;1.00;;;;;;;30.04;56.20;99598.75;4987182;28;20129;-74
2023/08/29 07:36:59;;;;;;;2.15;0.95;;;;;;;29.72;54.78;99564.78;4986686;28;20065;-77
2023/08/29 07:39:25;;;;;;;0.85;0.82;;;;;;;29.78;56.36;99556.09;4982193;28;20084;-75
2023/08/29 07:41:51;;;;;;;1.33;1.23;;;;;;;30.19;55.78;99621.66;4980913;28;20521;-78
2023/08/29 07:44:16;;;;;;;1.95;1.42;;;;;;;30.50;55.18;99625.03;4986635;28;20052;-76
2023/08/29 07:46:42;;;;;;;1.77;1.67;;;;;;;30.39;55.64;99619.81;4987000;28;20065;-78
2023/08/29 07:49:13;;;;;;;2.05;1.08;;;;;;;29.95;55.46;99542.84;4986486;28;20042;-76
2023/08/29 07:51:39;;;;;;;3.05;1.55;;;;;;;30.44;55.24;99605.81;4986692;28;20386;-77
2023/08/29 07:54:05;;;;;;;0.30;0.30;;;;;;;30.06;54.84;99550.75;4986589;28;20034;-77
2023/08/29 07:56:30;;;;;;;1.02;0.93;;;;;;;30.50;54.41;99627.72;4983157;28;20160;-78
2023/08/29 07:58:56;;;;;;;3.60;1.30;;;;;;;30.56;54.05;99606.50;4984223;28;20029;-77
2023/08/29 08:01:21;;;;;;;3.08;0.80;;;;;;;30.16;53.37;99534.50;4985091;28;20395;-77
2023/08/29 08:03:47;;;;;;;1.45;1.27;;;;;;;30.65;53.64;99611.03;4985983;28;20618;-74
2023/08/29 08:06:12;;;;;;;2.25;1.63;;;;;;;30.33;53.88;99535.63;4978611;28;20053;-77
2023/08/29 08:08:38;;;;;;;1.13;0.57;;;;;;;30.94;52.46;99577.53;4985505;28;20042;-75
2023/08/29 08:11:04;;;;;;;0.65;0.57;;;;;;;31.26;52.47;99579.78;4986616;28;20119;-77
2023/08/29 08:13:31;;;;;;;4.50;2.95;;;;;;;30.77;51.24;99520.44;4982355;28;20447;-78
2023/08/29 08:15:56;;;;;;;2.22;1.27;;;;;;;30.79;51.83;99515.72;4981237;28;20043;-76
2023/08/29 08:18:22;;;;;;;3.65;2.67;;;;;;;31.36;51.27;99590.53;4985846;28;20057;-76
2023/08/29 08:20:47;;;;;;;1.08;0.90;;;;;;;31.22;50.48;99521.44;4985908;28;20045;-76
2023/08/29 08:23:13;;;;;;;2.38;2.17;;;;;;;30.89;50.21;99505.69;4982795;28;20490;-77
2023/08/29 08:25:38;;;;;;;0.70;0.68;;;;;;;31.41;50.38;99580.97;4985220;28;20041;-76
2023/08/29 08:28:06;;;;;;;1.52;1.42;;;;;;;31.28;51.17;99556.91;4983644;28;20518;-77
2023/08/29 08:30:32;;;;;;;0.43;0.43;;;;;;;31.47;49.81;99500.84;4985628;28;20042;-76
2023/08/29 08:32:57;;;;;;;1.00;0.68;;;;;;;31.96;50.09;99567.22;4985765;28;20426;-76
2023/08/29 08:35:23;;;;;;;3.85;2.70;;;;;;;31.68;49.95;99555.63;4984197;28;20030;-76
2023/08/29 08:37:48;;;;;;;1.08;0.98;;;;;;;31.96;50.52;99583.50;4986309;28;20065;-78
2023/08/29 08:40:15;;;;;;;6.32;1.77;;;;;;;31.88;49.57;99558.13;4984453;28;20052;-77
2023/08/29 08:42:40;;;;;;;6.95;4.60;;;;;;;32.10;48.59;99548.63;4997017;28;20047;-78
2023/08/29 08:45:07;;;;;;;0.95;0.95;;;;;;;32.28;49.24;99567.59;4981605;28;20337;-76
2023/08/29 08:47:35;;;;;;;0.80;0.80;;;;;;;31.95;48.87;99556.47;4985994;28;20573;-77
2023/08/29 08:50:02;;;;;;;1.13;1.02;;;;;;;31.88;48.42;99484.84;4980246;28;20054;-75
2023/08/29 08:52:32;;;;;;;0.38;0.38;;;;;;;32.12;48.02;99493.19;4985444;28;20038;-77
2023/08/29 08:54:57;;;;;;;1.48;1.35;;;;;;;32.19;47.96;99485.22;4986189;28;20046;-77
2023/08/29 08:57:24;;;;;;;1.45;0.98;;;;;;;32.49;48.36;99549.03;4989149;28;20057;-76
2023/08/29 08:59:50;;;;;;;2.42;2.30;;;;;;;32.49;48.48;99540.88;4979783;28;20050;-77
2023/08/29 09:02:17;;;;;;;1.30;1.20;;;;;;;32.11;48.25;99483.34;4996267;28;20042;-74
2023/08/29 09:04:43;;;;;;;1.63;1.27;;;;;;;32.16;48.72;99482.84;5011169;28;20034;-76
2023/08/29 09:07:09;;;;;;;0.77;0.45;;;;;;;32.96;48.13;99542.25;4986784;28;20069;-78
2023/08/29 09:09:35;;;;;;;1.30;1.20;;;;;;;33.01;47.97;99537.16;5000125;28;20558;-76
2023/08/29 09:12:00;;;;;;;1.25;1.15;;;;;;;33.22;47.60;99534.88;4986374;28;20042;-76
2023/08/29 09:14:27;;;;;;;1.75;1.40;;;;;;;32.53;47.85;99451.81;4989539;28;20049;-75
2023/08/29 09:16:57;;;;;;;2.42;0.98;;;;;;;32.89;47.59;99498.59;4984564;28;20023;-77
2023/08/29 09:19:23;;;;;;;1.42;1.33;;;;;;;33.04;47.34;99527.84;4988071;28;20073;-75
2023/08/29 09:21:49;;;;;;;2.15;1.42;;;;;;;32.60;47.00;99447.41;4990112;28;20450;-77
2023/08/29 09:24:22;;;;;;;0.77;0.60;;;;;;;33.16;46.83;99515.66;4987978;28;20120;-77
2023/08/29 09:26:48;;;;;;;4.78;1.58;;;;;;;33.15;46.55;99497.63;4984374;28;20530;-75
2023/08/29 09:29:19;;;;;;;1.42;1.33;;;;;;;33.19;46.48;99494.41;4984066;28;20049;-77
2023/08/29 09:31:46;;;;;;;0.93;0.70;;;;;;;33.22;46.12;99526.72;4989395;28;20065;-77
2023/08/29 09:34:30;;;;;;;1.40;1.30;;;;;;;33.32;46.87;99518.41;4988332;28;20074;-74
2023/08/29 09:36:57;;;;;;;1.05;1.02;;;;;;;32.73;46.20;99425.19;4995724;28;20081;-78
2023/08/29 09:39:23;;;;;;;2.50;1.73;;;;;;;33.42;46.83;99505.47;4989001;28;20050;-80
2023/08/29 09:42:03;;;;;;;3.28;1.30;;;;;;;33.70;45.91;99512.50;4989574;28;20042;-77
2023/08/29 09:44:33;;;;;;;0.28;0.28;;;;;;;33.39;45.97;99442.44;4986822;28;20580;-76
2023/08/29 09:46:59;;;;;;;1.42;1.02;;;;;;;34.10;45.27;99522.47;5000405;28;20097;-76
2023/08/29 09:49:31;;;;;;;1.48;0.93;;;;;;;34.09;45.52;99471.78;4979273;28;20054;-76
2023/08/29 09:52:01;;;;;;;0.38;0.38;;;;;;;34.26;44.50;99494.34;4987810;28;20406;-75
2023/08/29 09:54:30;;;;;;;3.25;1.40;;;;;;;34.53;44.03;99508.53;4982135;28;20061;-76
2023/08/29 09:56:59;;;;;;;1.38;1.27;;;;;;;34.66;44.20;99512.44;4988809;28;20046;-76
2023/08/29 09:59:25;;;;;;;3.05;2.38;;;;;;;33.70;43.10;99366.38;4987513;28;20042;-76
2023/08/29 10:01:52;;;;;;;2.63;1.90;;;;;;;34.40;43.91;99498.22;4987923;28;20046;-75
2023/08/29 10:04:21;;;;;;;1.27;1.17;;;;;;;34.44;42.96;99478.63;4987715;28;20489;-76
2023/08/29 10:06:50;;;;;;;2.15;1.95;;;;;;;34.89;43.45;99506.19;4996807;28;20070;-75
2023/08/29 10:09:18;;;;;;;15.70;1.38;;;;;;;33.84;43.99;99417.38;4988769;28;20117;-76
2023/08/29 10:11:44;;;;;;;2.70;1.98;;;;;;;34.38;43.92;99509.28;4980016;28;20125;-75
2023/08/29 10:14:11;;;;;;;2.58;1.77;;;;;;;34.68;43.11;99423.16;4986231;28;20080;-75
2023/08/29 10:16:38;;;;;;;1.92;1.80;;;;;;;34.85;42.16;99447.59;4988704;28;20371;-77
2023/08/29 10:19:03;;;;;;;5.47;2.65;;;;;;;35.44;42.11;99483.28;5019425;28;20047;-76
2023/08/29 10:21:29;;;;;;;1.52;1.10;;;;;;;35.66;41.79;99492.53;4986680;28;20046;-76
2023/08/29 10:23:56;;;;;;;1.45;1.35;;;;;;;35.67;41.43;99468.78;4986336;28;20104;-74
2023/08/29 10:26:23;;;;;;;1.15;1.05;;;;;;;34.73;42.49;99416.31;4988214;28;20065;-77
2023/08/29 10:28:50;;;;;;;1.40;1.30;;;;;;;35.62;41.30;99488.44;4974088;28;20034;-76
2023/08/29 10:31:17;;;;;;;1.48;1.38;;;;;;;35.39;40.47;99433.03;4985049;28;20082;-75
2023/08/29 10:33:43;;;;;;;1.17;1.08;;;;;;;35.27;41.83;99485.31;4985432;28;20050;-78
2023/08/29 10:36:09;;;;;;;2.45;2.25;;;;;;;35.02;40.86;99394.63;4988454;28;20058;-76
2023/08/29 10:38:40;;;;;;;1.52;1.42;;;;;;;34.44;41.02;99327.91;4986351;28;20058;-78
2023/08/29 10:41:10;;;;;;;1.77;1.67;;;;;;;35.56;39.98;99409.16;4983278;28;20471;-78
2023/08/29 10:43:36;;;;;;;2.45;2.25;;;;;;;35.67;40.69;99483.28;4984985;28;20373;-77
2023/08/29 10:46:11;;;;;;;2.60;2.40;;;;;;;36.71;40.02;99479.72;4977498;28;20410;-76
2023/08/29 10:48:36;;;;;;;2.03;1.83;;;;;;;36.04;40.20;99476.06;4981615;28;20394;-75
2023/08/29 10:51:09;;;;;;;1.17;1.08;;;;;;;35.78;40.96;99473.81;4987741;28;20038;-77
2023/08/29 10:53:48;;;;;;;3.03;2.75;;;;;;;35.77;39.88;99452.13;4987646;28;20054;-77
2023/08/29 10:56:15;;;;;;;1.20;1.13;;;;;;;36.18;40.32;99463.50;4983217;28;20065;-77
2023/08/29 10:58:42;;;;;;;3.40;2.35;;;;;;;36.02;39.38;99398.09;4985738;28;20026;-78
2023/08/29 11:01:30;;;;;;;1.05;0.88;;;;;;;36.48;39.26;99477.09;4987169;28;20065;-77
2023/08/29 11:03:57;;;;;;;1.08;1.02;;;;;;;36.52;38.23;99391.78;4981028;28;20031;-77
2023/08/29 11:06:24;;;;;;;3.13;1.50;;;;;;;36.50;39.08;99448.56;4981040;28;20144;-76
2023/08/29 11:09:10;;;;;;;0.65;0.65;;;;;;;35.86;38.87;99385.50;4987476;28;20041;-78
2023/08/29 11:11:36;;;;;;;1.75;1.65;;;;;;;36.37;38.30;99374.59;4980200;28;20531;-76
2023/08/29 11:14:06;;;;;;;1.17;1.08;;;;;;;36.84;37.82;99457.16;4978533;28;20805;-75
2023/08/29 11:16:35;;;;;;;1.15;1.05;;;;;;;36.59;38.04;99457.50;4987298;28;20070;-78
2023/08/29 11:19:11;;;;;;;0.98;0.95;;;;;;;36.59;37.11;99383.69;4984148;28;20074;-77
2023/08/29 11:21:37;;;;;;;1.13;1.08;;;;;;;36.77;37.10;99437.94;5021671;28;20093;-77
2023/08/29 11:24:06;;;;;;;1.75;1.38;;;;;;;35.76;38.24;99417.69;4977561;28;20069;-78
2023/08/29 11:26:35;;;;;;;0.70;0.70;;;;;;;35.87;38.13;99404.41;4986929;28;20046;-77
2023/08/29 11:29:05;;;;;;;2.10;1.90;;;;;;;35.47;38.12;99420.19;4977563;28;20128;-78